createdAt,value
2023-03-26T00:02:21.080Z,98781.34
2023-03-26T00:04:48.010Z,98772.84
2023-03-26T00:07:17.459Z,98777.94
2023-03-26T00:09:44.255Z,98783.19
2023-03-26T00:12:11.345Z,98779.00
2023-03-26T00:14:38.685Z,98786.06
2023-03-26T00:17:05.588Z,98792.13
2023-03-26T00:19:32.534Z,98790.25
2023-03-26T00:21:59.382Z,98791.75
2023-03-26T00:24:29.693Z,98787.66
2023-03-26T00:26:56.394Z,98787.66
2023-03-26T00:29:24.720Z,98786.28
2023-03-26T00:31:51.380Z,98787.31
2023-03-26T00:34:18.732Z,98789.38
2023-03-26T00:36:47.178Z,98785.81
2023-03-26T00:39:14.311Z,98782.31
2023-03-26T00:41:43.464Z,98785.00
2023-03-26T00:44:11.107Z,98769.19
2023-03-26T00:46:38.232Z,98776.25
2023-03-26T00:49:05.344Z,98769.53
2023-03-26T00:51:34.170Z,98784.59
2023-03-26T00:54:01.069Z,98774.38
2023-03-26T00:56:27.835Z,98768.69
2023-03-26T00:58:54.638Z,98771.59
2023-03-26T01:01:29.255Z,98770.53
2023-03-26T01:04:08.864Z,98759.94
2023-03-26T01:06:42.356Z,98775.53
2023-03-26T01:09:21.703Z,98763.78
2023-03-26T01:11:49.523Z,98765.28
2023-03-26T01:14:19.947Z,98759.50
2023-03-26T01:16:52.682Z,98759.19
2023-03-26T01:19:29.740Z,98745.09
2023-03-26T01:21:58.101Z,98751.13
2023-03-26T01:24:24.915Z,98736.38
2023-03-26T01:26:57.760Z,98727.56
2023-03-26T01:29:35.997Z,98727.59
2023-03-26T01:32:27.782Z,98728.84
2023-03-26T01:35:06.803Z,98728.34
2023-03-26T01:37:54.165Z,98727.25
2023-03-26T01:40:28.990Z,98722.28
2023-03-26T01:43:05.359Z,98728.09
2023-03-26T01:45:34.971Z,98730.63
2023-03-26T01:48:02.387Z,98731.19
2023-03-26T01:50:29.060Z,98723.44
2023-03-26T01:52:55.917Z,98722.91
2023-03-26T01:55:28.676Z,98717.66
2023-03-26T01:58:08.741Z,98713.59
2023-03-26T02:01:02.369Z,98712.31
2023-03-26T02:03:36.208Z,98731.94
2023-03-26T02:06:06.204Z,98732.88
2023-03-26T02:08:41.396Z,98735.66
2023-03-26T02:11:14.296Z,98730.78
2023-03-26T02:13:43.565Z,98729.53
2023-03-26T02:16:14.539Z,98708.84
2023-03-26T02:18:41.584Z,98723.00
2023-03-26T02:21:20.456Z,98723.25
2023-03-26T02:23:51.017Z,98713.47
2023-03-26T02:26:20.010Z,98717.78
2023-03-26T02:29:20.581Z,98720.34
2023-03-26T02:31:49.212Z,98716.59
2023-03-26T02:34:17.185Z,98704.31
2023-03-26T02:36:53.546Z,98712.88
2023-03-26T02:39:21.091Z,98718.09
2023-03-26T02:42:02.887Z,98725.06
2023-03-26T02:44:32.608Z,98718.09
2023-03-26T02:46:59.361Z,98727.78
2023-03-26T02:49:55.293Z,98730.78
2023-03-26T02:52:43.315Z,98723.78
2023-03-26T02:55:10.356Z,98723.06
2023-03-26T02:57:39.192Z,98717.81
2023-03-26T03:00:16.451Z,98715.28
2023-03-26T03:03:04.750Z,98721.81
2023-03-26T03:05:33.413Z,98713.06
2023-03-26T03:08:28.491Z,98718.53
2023-03-26T03:11:26.854Z,98721.13
2023-03-26T03:13:54.541Z,98719.72
2023-03-26T03:16:23.840Z,98726.78
2023-03-26T03:18:57.904Z,98718.44
2023-03-26T03:21:29.744Z,98717.50
2023-03-26T03:24:00.023Z,98717.50
2023-03-26T03:26:30.797Z,98722.41
2023-03-26T03:29:03.465Z,98708.00
2023-03-26T03:31:30.548Z,98720.53
2023-03-26T03:34:02.562Z,98708.13
2023-03-26T03:36:33.496Z,98715.13
2023-03-26T03:39:09.113Z,98717.66
2023-03-26T03:41:36.884Z,98718.47
2023-03-26T03:44:06.596Z,98721.84
2023-03-26T03:46:34.112Z,98720.47
2023-03-26T03:49:01.137Z,98717.56
2023-03-26T03:51:35.531Z,98714.66
2023-03-26T03:54:05.268Z,98725.22
2023-03-26T03:56:58.540Z,98722.91
2023-03-26T03:59:58.421Z,98729.16
2023-03-26T04:02:30.545Z,98724.88
2023-03-26T04:05:02.976Z,98722.63
2023-03-26T04:07:33.695Z,98727.66
2023-03-26T04:10:08.061Z,98723.25
2023-03-26T04:12:53.965Z,98737.28
2023-03-26T04:15:36.431Z,98728.34
2023-03-26T04:18:03.846Z,98718.56
2023-03-26T04:20:32.957Z,98710.22
2023-03-26T04:23:00.820Z,98714.88
2023-03-26T04:25:30.970Z,98706.97
2023-03-26T04:28:07.834Z,98704.88
2023-03-26T04:31:12.072Z,98701.16
2023-03-26T04:33:40.336Z,98705.78
2023-03-26T04:36:07.400Z,98714.19
2023-03-26T04:38:41.688Z,98699.28
2023-03-26T04:41:13.845Z,98708.81
2023-03-26T04:43:51.119Z,98702.41
2023-03-26T04:46:27.267Z,98712.19
2023-03-26T04:49:05.314Z,98704.16
2023-03-26T04:51:38.642Z,98699.97
2023-03-26T04:54:24.598Z,98715.91
2023-03-26T04:57:05.849Z,98715.56
2023-03-26T04:59:43.769Z,98711.13
2023-03-26T05:02:14.131Z,98709.25
2023-03-26T05:04:50.173Z,98714.97
2023-03-26T05:07:21.052Z,98704.88
2023-03-26T05:09:51.398Z,98699.59
2023-03-26T05:12:34.762Z,98706.47
2023-03-26T05:15:16.263Z,98707.38
2023-03-26T05:18:15.228Z,98697.84
2023-03-26T05:20:49.080Z,98707.28
2023-03-26T05:23:16.156Z,98705.88
2023-03-26T05:25:47.332Z,98708.22
2023-03-26T05:28:23.485Z,98698.56
2023-03-26T05:31:15.538Z,98704.00
2023-03-26T05:33:46.506Z,98700.63
2023-03-26T05:36:15.377Z,98701.56
2023-03-26T05:38:50.160Z,98699.09
2023-03-26T05:41:37.296Z,98702.44
2023-03-26T05:44:04.677Z,98700.94
2023-03-26T05:46:31.743Z,98705.84
2023-03-26T05:48:58.995Z,98707.59
2023-03-26T05:51:28.447Z,98711.50
2023-03-26T05:54:16.189Z,98713.09
2023-03-26T05:57:02.940Z,98722.66
2023-03-26T05:59:48.580Z,98726.16
2023-03-26T06:02:35.381Z,98720.47
2023-03-26T06:05:22.157Z,98711.97
2023-03-26T06:08:15.292Z,98716.53
2023-03-26T06:10:50.857Z,98706.88
2023-03-26T06:13:17.961Z,98710.78
2023-03-26T06:15:46.316Z,98706.16
2023-03-26T06:18:23.703Z,98712.59
2023-03-26T06:21:09.023Z,98725.44
2023-03-26T06:23:42.939Z,98723.56
2023-03-26T06:26:28.407Z,98720.13
2023-03-26T06:29:02.595Z,98728.63
2023-03-26T06:31:35.381Z,98729.00
2023-03-26T06:34:16.187Z,98722.25
2023-03-26T06:36:43.066Z,98722.25
2023-03-26T06:39:10.147Z,98726.88
2023-03-26T06:41:42.421Z,98723.16
2023-03-26T06:44:27.989Z,98716.22
2023-03-26T06:47:13.434Z,98717.53
2023-03-26T06:49:49.116Z,98716.13
2023-03-26T06:52:34.231Z,98720.75
2023-03-26T06:55:10.687Z,98722.44
2023-03-26T06:58:06.647Z,98720.06
2023-03-26T07:00:42.480Z,98716.56
2023-03-26T07:03:28.042Z,98727.91
2023-03-26T07:06:13.510Z,98725.72
2023-03-26T07:09:00.629Z,98725.47
2023-03-26T07:11:27.668Z,98723.31
2023-03-26T07:14:14.789Z,98718.72
2023-03-26T07:16:41.677Z,98717.13
2023-03-26T07:19:28.661Z,98712.50
2023-03-26T07:21:55.735Z,98715.22
2023-03-26T07:24:42.812Z,98712.00
2023-03-26T07:27:37.196Z,98707.13
2023-03-26T07:30:36.960Z,98704.44
2023-03-26T07:33:41.431Z,98703.66
2023-03-26T07:37:02.127Z,98696.09
2023-03-26T07:39:58.628Z,98700.72
2023-03-26T07:42:54.573Z,98699.91
2023-03-26T07:45:44.820Z,98693.69
2023-03-26T07:48:51.967Z,98690.19
2023-03-26T07:51:34.626Z,98689.91
2023-03-26T07:54:11.480Z,98695.31
2023-03-26T07:56:58.029Z,98686.94
2023-03-26T07:59:41.054Z,98684.25
2023-03-26T08:02:53.172Z,98684.25
2023-03-26T08:05:48.128Z,98676.97
2023-03-26T08:08:56.454Z,98681.00
2023-03-26T08:12:05.338Z,98666.09
2023-03-26T08:14:47.378Z,98659.63
2023-03-26T08:17:32.936Z,98663.66
2023-03-26T08:20:18.653Z,98660.94
2023-03-26T08:22:50.931Z,98660.97
2023-03-26T08:25:37.415Z,98664.09
2023-03-26T08:28:13.853Z,98659.44
2023-03-26T08:30:41.051Z,98661.47
2023-03-26T08:33:19.257Z,98659.19
2023-03-26T08:35:47.127Z,98661.44
2023-03-26T08:38:18.908Z,98646.78
2023-03-26T08:41:25.370Z,98646.81
2023-03-26T08:44:35.063Z,98637.19
2023-03-26T08:47:16.932Z,98623.41
2023-03-26T08:50:08.712Z,98623.50
2023-03-26T08:52:51.024Z,98612.81
2023-03-26T08:55:43.731Z,98614.06
2023-03-26T08:58:29.465Z,98605.66
2023-03-26T09:01:03.148Z,98598.66
2023-03-26T09:03:36.318Z,98598.72
2023-03-26T09:06:31.576Z,98587.38
2023-03-26T09:09:06.704Z,98577.06
2023-03-26T09:12:12.524Z,98568.34
2023-03-26T09:14:48.800Z,98566.47
2023-03-26T09:17:25.928Z,98556.09
2023-03-26T09:20:28.727Z,98554.81
2023-03-26T09:23:04.631Z,98550.72
2023-03-26T09:25:41.914Z,98551.72
2023-03-26T09:28:30.948Z,98546.84
2023-03-26T09:31:22.761Z,98542.81
2023-03-26T09:34:08.279Z,98539.25
2023-03-26T09:36:57.532Z,98540.41
2023-03-26T09:39:35.582Z,98531.97
2023-03-26T09:42:17.453Z,98522.38
2023-03-26T09:45:00.103Z,98519.22
2023-03-26T09:47:56.532Z,98518.00
2023-03-26T09:50:29.842Z,98512.53
2023-03-26T09:53:13.890Z,98513.88
2023-03-26T09:56:01.484Z,98498.09
2023-03-26T09:58:33.732Z,98488.06
2023-03-26T10:01:40.772Z,98481.88
2023-03-26T10:04:23.990Z,98478.63
2023-03-26T10:06:56.820Z,98473.88
2023-03-26T10:09:54.463Z,98471.00
2023-03-26T10:12:28.479Z,98469.25
2023-03-26T10:15:08.760Z,98471.34
2023-03-26T10:17:57.271Z,98454.97
2023-03-26T10:20:33.496Z,98454.31
2023-03-26T10:23:09.416Z,98442.94
2023-03-26T10:26:00.620Z,98437.94
2023-03-26T10:28:33.436Z,98432.06
2023-03-26T10:31:06.323Z,98426.09
2023-03-26T10:33:52.322Z,98412.75
2023-03-26T10:36:35.118Z,98407.44
2023-03-26T10:39:43.468Z,98405.13
2023-03-26T10:42:48.081Z,98395.44
2023-03-26T10:45:33.104Z,98397.97
2023-03-26T10:48:25.109Z,98390.78
2023-03-26T10:51:10.563Z,98380.09
2023-03-26T10:53:55.280Z,98377.94
2023-03-26T10:56:27.851Z,98370.41
2023-03-26T10:58:56.929Z,98357.63
2023-03-26T11:01:48.223Z,98344.81
2023-03-26T11:04:41.077Z,98328.34
2023-03-26T11:07:21.507Z,98312.88
2023-03-26T11:09:59.514Z,98311.28
2023-03-26T11:12:30.471Z,98316.50
2023-03-26T11:15:00.154Z,98299.25
2023-03-26T11:17:49.372Z,98304.19
2023-03-26T11:20:22.183Z,98307.78
2023-03-26T11:23:05.080Z,98302.84
2023-03-26T11:25:43.983Z,98288.50
2023-03-26T11:28:26.823Z,98294.72
2023-03-26T11:31:18.736Z,98288.28
2023-03-26T11:33:48.704Z,98285.66
2023-03-26T11:36:23.976Z,98282.91
2023-03-26T11:38:51.423Z,98265.31
2023-03-26T11:41:28.329Z,98264.84
2023-03-26T11:44:20.748Z,98252.34
2023-03-26T11:46:49.925Z,98263.22
2023-03-26T11:49:21.771Z,98249.59
2023-03-26T11:51:49.129Z,98242.75
2023-03-26T11:54:16.477Z,98241.94
2023-03-26T11:57:05.595Z,98235.56
2023-03-26T11:59:57.513Z,98233.34
2023-03-26T12:02:29.480Z,98212.38
2023-03-26T12:05:21.905Z,98214.31
2023-03-26T12:08:00.263Z,98203.59
2023-03-26T12:10:38.452Z,98200.84
2023-03-26T12:13:32.823Z,98202.44
2023-03-26T12:16:09.315Z,98192.78
2023-03-26T12:18:38.368Z,98196.94
2023-03-26T12:21:16.565Z,98201.81
2023-03-26T12:24:01.400Z,98197.66
2023-03-26T12:26:45.719Z,98186.75
2023-03-26T12:29:14.228Z,98187.03
2023-03-26T12:31:58.782Z,98179.56
2023-03-26T12:34:35.236Z,98175.09
2023-03-26T12:37:03.674Z,98169.88
2023-03-26T12:40:07.011Z,98175.56
2023-03-26T12:44:45.243Z,98161.56
2023-03-26T12:45:23.818Z,98164.22
2023-03-26T12:47:58.716Z,98152.78
2023-03-26T12:50:46.485Z,98157.94
2023-03-26T12:53:19.092Z,98154.69
2023-03-26T12:55:52.937Z,98130.94
2023-03-26T12:58:29.556Z,98117.19
2023-03-26T13:01:07.173Z,98116.66
2023-03-26T13:03:51.819Z,98114.00
2023-03-26T13:06:59.790Z,98096.56
2023-03-26T13:09:27.983Z,98083.84
2023-03-26T13:12:19.154Z,98084.75
2023-03-26T13:15:25.662Z,98080.56
2023-03-26T13:18:02.418Z,98077.28
2023-03-26T13:20:50.516Z,98079.75
2023-03-26T13:23:42.313Z,98068.97
2023-03-26T13:26:31.196Z,98066.59
2023-03-26T13:29:21.052Z,98070.66
2023-03-26T13:32:26.936Z,98065.56
2023-03-26T13:35:15.876Z,98055.38
2023-03-26T13:37:45.725Z,98051.97
2023-03-26T13:40:17.884Z,98051.31
2023-03-26T13:43:19.467Z,98050.41
2023-03-26T13:45:56.787Z,98050.31
2023-03-26T13:48:30.147Z,98037.84
2023-03-26T13:51:04.863Z,98044.38
2023-03-26T13:53:47.104Z,98047.66
2023-03-26T13:56:19.965Z,98042.47
2023-03-26T13:58:54.536Z,98046.63
2023-03-26T14:01:33.990Z,98032.38
2023-03-26T14:04:32.448Z,98034.56
2023-03-26T14:07:09.912Z,98019.47
2023-03-26T14:09:48.546Z,98013.31
2023-03-26T14:12:27.459Z,98000.81
2023-03-26T14:15:02.191Z,97988.84
2023-03-26T14:17:38.545Z,97982.16
2023-03-26T14:20:28.313Z,97954.84
2023-03-26T14:23:03.991Z,97944.00
2023-03-26T14:25:49.494Z,97933.28
2023-03-26T14:28:25.109Z,97926.59
2023-03-26T14:30:58.887Z,97937.47
2023-03-26T14:33:42.098Z,97947.38
2023-03-26T14:36:17.214Z,97951.53
2023-03-26T14:38:56.806Z,97954.09
2023-03-26T14:41:25.513Z,97950.56
2023-03-26T14:44:07.447Z,97946.59
2023-03-26T14:46:52.780Z,97946.25
2023-03-26T14:49:39.787Z,97951.38
2023-03-26T14:52:27.824Z,97945.28
2023-03-26T14:54:58.152Z,97942.28
2023-03-26T14:57:45.371Z,97946.44
2023-03-26T15:00:20.141Z,97937.16
2023-03-26T15:03:23.891Z,97919.91
2023-03-26T15:05:59.771Z,97923.88
2023-03-26T15:08:48.821Z,97918.56
2023-03-26T15:11:50.633Z,97914.81
2023-03-26T15:14:39.344Z,97917.22
2023-03-26T15:17:34.614Z,97924.66
2023-03-26T15:20:31.977Z,97922.91
2023-03-26T15:23:19.938Z,97920.31
2023-03-26T15:26:18.982Z,97920.63
2023-03-26T15:28:54.974Z,97929.84
2023-03-26T15:31:24.630Z,97919.16
2023-03-26T15:34:33.277Z,97924.94
2023-03-26T15:37:18.842Z,97919.56
2023-03-26T15:40:07.583Z,97918.34
2023-03-26T15:42:45.895Z,97919.06
2023-03-26T15:45:31.353Z,97918.69
2023-03-26T15:48:13.543Z,97917.34
2023-03-26T15:51:14.409Z,97921.59
2023-03-26T15:53:50.248Z,97911.69
2023-03-26T15:56:42.224Z,97913.16
2023-03-26T15:59:27.483Z,97911.63
2023-03-26T16:02:02.781Z,97909.38
2023-03-26T16:04:51.100Z,97912.47
2023-03-26T16:07:39.234Z,97931.25
2023-03-26T16:10:09.663Z,97932.06
2023-03-26T16:12:47.926Z,97936.16
2023-03-26T16:15:32.378Z,97939.22
2023-03-26T16:18:15.580Z,97947.38
2023-03-26T16:20:54.385Z,97930.94
2023-03-26T16:23:26.076Z,97942.06
2023-03-26T16:25:55.818Z,97940.84
2023-03-26T16:28:29.912Z,97934.41
2023-03-26T16:31:36.775Z,97931.78
2023-03-26T16:34:30.289Z,97943.91
2023-03-26T16:36:59.368Z,97953.34
2023-03-26T16:39:46.575Z,97953.19
2023-03-26T16:42:28.660Z,97973.28
2023-03-26T16:45:20.492Z,97979.38
2023-03-26T16:47:55.866Z,97979.72
2023-03-26T16:50:51.011Z,97991.31
2023-03-26T16:53:34.396Z,97997.06
2023-03-26T16:56:21.541Z,97996.19
2023-03-26T16:59:26.931Z,97994.38
2023-03-26T17:02:05.337Z,97992.81
2023-03-26T17:04:32.864Z,98002.56
2023-03-26T17:07:23.508Z,98005.59
2023-03-26T17:10:01.144Z,98003.50
2023-03-26T17:12:33.829Z,97995.25
2023-03-26T17:15:25.620Z,98002.06
2023-03-26T17:18:01.681Z,98005.31
2023-03-26T17:20:33.873Z,97998.03
2023-03-26T17:23:19.050Z,98008.00
2023-03-26T17:25:57.969Z,98011.00
2023-03-26T17:28:42.198Z,97999.97
2023-03-26T17:31:16.047Z,97997.03
2023-03-26T17:33:43.360Z,97994.69
2023-03-26T17:36:13.276Z,98002.72
2023-03-26T17:38:40.100Z,97998.47
2023-03-26T17:41:15.423Z,98011.91
2023-03-26T17:43:48.479Z,98013.41
2023-03-26T17:46:39.555Z,98009.75
2023-03-26T17:49:12.708Z,98010.81
2023-03-26T17:51:53.123Z,98008.13
2023-03-26T17:54:27.397Z,98003.41
2023-03-26T17:56:55.670Z,98003.03
2023-03-26T17:59:24.445Z,98001.44
2023-03-26T18:01:59.886Z,97998.53
2023-03-26T18:04:30.870Z,98010.34
2023-03-26T18:07:17.101Z,98002.84
2023-03-26T18:10:10.752Z,97998.56
2023-03-26T18:12:52.835Z,98007.47
2023-03-26T18:15:33.672Z,98005.38
2023-03-26T18:18:20.935Z,97995.19
2023-03-26T18:20:49.324Z,98007.25
2023-03-26T18:23:26.242Z,98004.09
2023-03-26T18:25:58.207Z,98009.97
2023-03-26T18:28:35.722Z,98018.00
2023-03-26T18:31:09.692Z,98009.97
2023-03-26T18:33:45.198Z,97993.91
2023-03-26T18:36:12.720Z,98000.34
2023-03-26T18:38:41.219Z,98004.66
2023-03-26T18:41:17.437Z,97981.31
2023-03-26T18:43:47.457Z,97984.00
2023-03-26T18:46:14.804Z,97974.34
2023-03-26T18:48:42.069Z,97963.63
2023-03-26T18:51:12.169Z,97971.66
2023-03-26T18:53:49.781Z,97969.78
2023-03-26T18:56:29.407Z,97960.91
2023-03-26T18:58:59.054Z,97966.63
2023-03-26T19:01:33.103Z,97947.28
2023-03-26T19:04:12.026Z,97954.75
2023-03-26T19:06:40.825Z,97951.56
2023-03-26T19:09:23.755Z,97949.41
2023-03-26T19:11:59.643Z,97941.66
2023-03-26T19:14:28.723Z,97939.78
2023-03-26T19:16:58.670Z,97932.50
2023-03-26T19:19:29.467Z,97932.78
2023-03-26T19:21:59.073Z,97923.69
2023-03-26T19:24:26.664Z,97919.38
2023-03-26T19:26:53.565Z,97919.09
2023-03-26T19:29:25.445Z,97909.72
2023-03-26T19:31:52.976Z,97926.66
2023-03-26T19:34:32.543Z,97921.25
2023-03-26T19:37:01.854Z,97915.09
2023-03-26T19:39:55.742Z,97922.63
2023-03-26T19:42:43.818Z,97919.94
2023-03-26T19:45:34.592Z,97920.44
2023-03-26T19:48:14.529Z,97909.22
2023-03-26T19:50:46.045Z,97898.75
2023-03-26T19:53:22.164Z,97900.09
2023-03-26T19:55:53.993Z,97892.84
2023-03-26T19:58:21.438Z,97905.44
2023-03-26T20:00:48.212Z,97905.97
2023-03-26T20:03:17.042Z,97905.47
2023-03-26T20:05:44.055Z,97895.28
2023-03-26T20:08:15.407Z,97904.16
2023-03-26T20:10:43.263Z,97890.69
2023-03-26T20:13:15.218Z,97885.06
2023-03-26T20:15:44.003Z,97895.53
2023-03-26T20:18:12.448Z,97894.19
2023-03-26T20:20:41.259Z,97899.28
2023-03-26T20:23:14.327Z,97884.25
2023-03-26T20:25:49.356Z,97888.28
2023-03-26T20:28:19.206Z,97892.06
2023-03-26T20:30:50.909Z,97893.69
2023-03-26T20:33:26.799Z,97889.94
2023-03-26T20:35:55.385Z,97882.69
2023-03-26T20:38:36.617Z,97889.63
2023-03-26T20:41:10.887Z,97887.25
2023-03-26T20:43:38.521Z,97877.84
2023-03-26T20:46:05.451Z,97872.50
2023-03-26T20:48:32.444Z,97877.59
2023-03-26T20:50:59.269Z,97873.56
2023-03-26T20:53:26.318Z,97870.91
2023-03-26T20:55:53.142Z,97863.38
2023-03-26T20:58:30.986Z,97866.84
2023-03-26T21:01:02.606Z,97861.50
2023-03-26T21:03:29.517Z,97860.69
2023-03-26T21:06:00.267Z,97842.97
2023-03-26T21:08:34.502Z,97849.16
2023-03-26T21:11:03.608Z,97839.78
2023-03-26T21:13:42.923Z,97829.03
2023-03-26T21:16:10.738Z,97839.75
2023-03-26T21:18:40.300Z,97831.19
2023-03-26T21:21:25.074Z,97830.13
2023-03-26T21:24:00.514Z,97838.69
2023-03-26T21:26:33.113Z,97823.41
2023-03-26T21:29:01.058Z,97827.19
2023-03-26T21:31:31.233Z,97822.06
2023-03-26T21:33:58.663Z,97805.94
2023-03-26T21:36:25.854Z,97803.56
2023-03-26T21:38:55.169Z,97807.06
2023-03-26T21:41:41.503Z,97797.13
2023-03-26T21:44:10.991Z,97799.53
2023-03-26T21:46:37.975Z,97797.66
2023-03-26T21:49:05.670Z,97792.56
2023-03-26T21:51:34.133Z,97790.16
2023-03-26T21:54:01.523Z,97785.06
2023-03-26T21:56:43.225Z,97791.22
2023-03-26T21:59:16.497Z,97788.03
2023-03-26T22:01:55.939Z,97786.97
2023-03-26T22:04:37.080Z,97795.53
2023-03-26T22:07:19.625Z,97788.84
2023-03-26T22:09:46.821Z,97788.84
2023-03-26T22:12:13.947Z,97784.78
2023-03-26T22:14:40.761Z,97788.28
2023-03-26T22:17:07.601Z,97778.66
2023-03-26T22:19:34.799Z,97781.31
2023-03-26T22:22:02.215Z,97782.13
2023-03-26T22:24:29.279Z,97777.31
2023-03-26T22:26:56.244Z,97770.06
2023-03-26T22:29:23.122Z,97766.31
2023-03-26T22:31:49.843Z,97768.13
2023-03-26T22:34:16.837Z,97765.47
2023-03-26T22:36:43.824Z,97765.75
2023-03-26T22:39:10.949Z,97753.69
2023-03-26T22:41:38.988Z,97756.38
2023-03-26T22:44:18.991Z,97755.31
2023-03-26T22:46:49.563Z,97750.22
2023-03-26T22:49:17.058Z,97753.19
2023-03-26T22:51:43.954Z,97755.84
2023-03-26T22:54:10.823Z,97748.09
2023-03-26T22:56:37.761Z,97746.19
2023-03-26T22:59:04.562Z,97734.97
2023-03-26T23:01:32.524Z,97732.78
2023-03-26T23:03:59.401Z,97731.47
2023-03-26T23:06:26.501Z,97732.03
2023-03-26T23:08:54.481Z,97734.41
2023-03-26T23:11:22.149Z,97731.47
2023-03-26T23:13:49.568Z,97723.97
2023-03-26T23:16:17.526Z,97734.69
2023-03-26T23:18:44.694Z,97733.34
2023-03-26T23:21:19.410Z,97734.97
2023-03-26T23:23:47.612Z,97728.78
2023-03-26T23:26:15.073Z,97728.78
2023-03-26T23:28:43.386Z,97731.75
2023-03-26T23:31:12.430Z,97729.59
2023-03-26T23:33:46.581Z,97726.91
2023-03-26T23:36:18.539Z,97725.56
2023-03-26T23:38:47.278Z,97721.00
2023-03-26T23:41:18.362Z,97715.66
2023-03-26T23:43:55.745Z,97719.13
2023-03-26T23:46:31.058Z,97714.31
2023-03-26T23:49:00.393Z,97701.16
2023-03-26T23:51:27.321Z,97705.72
2023-03-26T23:53:54.178Z,97700.09
2023-03-26T23:56:21.208Z,97697.69
2023-03-26T23:58:53.370Z,97682.66
